KBJC/BJC METAR and TAF weather

Enter ICAO airport designator
Station Type Date Time Source
KBJC METAR 2022/01/26 19:47 UTC NOAA

KBJC 261947Z 00000KT 65SM FEW120 00/M10 A2996


Station Type Date Time Source
KBJC Decoded METAR 2022/01/26 19:47 UTC NOAA

Broomfield / Jeffco, CO, United States (KBJC) 39-55N 105-07W
Jan 26, 2022 - 02:47 PM EST / 2022.01.26 1947 UTC
Wind: Calm:0
Visibility: 65 mile(s):0
Sky conditions: mostly clear
Temperature: 32 F (0 C)
Dew Point: 14 F (-10 C)
Relative Humidity: 46%
Pressure (altimeter): 29.96 in. Hg (1014 hPa)
ob: KBJC 261947Z 00000KT 65SM FEW120 00/M10 A2996
cycle: 20

Station Type Date Time Source
KBJC TAF 2022/01/26 18:36 UTC NOAA

TAF KBJC 261733Z 2618/2718 VRB04KT P6SM SKC
FM262300 06007KT P6SM SCT140 BKN180
FM270200 16008KT P6SM SCT140
FM271500 03012G17KT 2SM -SN OVC020
TEMPO 2716/2718 1/2SM SN OVC007

Example: see airport list